createdAt,value
2023-05-04T00:00:57.657Z,4.00
2023-05-04T00:03:26.114Z,3.53
2023-05-04T00:05:54.795Z,3.85
2023-05-04T00:08:24.552Z,3.90
2023-05-04T00:10:54.389Z,4.20
2023-05-04T00:13:22.805Z,3.95
2023-05-04T00:16:14.418Z,4.07
2023-05-04T00:18:50.487Z,4.20
2023-05-04T00:25:31.057Z,4.20
2023-05-04T00:28:00.244Z,3.80
2023-05-04T00:30:31.589Z,3.75
2023-05-04T00:33:01.078Z,4.20
2023-05-04T00:35:47.441Z,4.15
2023-05-04T00:38:16.795Z,4.43
2023-05-04T00:40:48.650Z,3.92
2023-05-04T00:43:17.252Z,4.55
2023-05-04T00:45:46.456Z,4.45
2023-05-04T00:48:16.278Z,4.60
2023-05-04T00:50:52.454Z,4.47
2023-05-04T00:53:22.291Z,4.63
2023-05-04T00:55:53.290Z,4.60
2023-05-04T00:58:22.354Z,4.40
2023-05-04T01:00:52.457Z,4.75
2023-05-04T01:03:29.587Z,4.07
2023-05-04T01:06:23.656Z,3.95
2023-05-04T01:08:59.124Z,4.55
2023-05-04T01:11:45.691Z,3.88
2023-05-04T01:14:16.148Z,4.78
2023-05-04T01:16:56.452Z,3.95
2023-05-04T01:19:25.102Z,5.25
2023-05-04T01:21:55.313Z,4.65
2023-05-04T01:24:24.628Z,5.25
2023-05-04T01:27:26.151Z,5.53
2023-05-04T01:30:01.481Z,5.55
2023-05-04T01:32:32.808Z,5.15
2023-05-04T01:35:01.973Z,5.10
2023-05-04T01:37:31.678Z,4.80
2023-05-04T01:40:00.218Z,3.92
2023-05-04T01:42:28.843Z,5.43
2023-05-04T01:44:57.424Z,4.78
2023-05-04T01:47:26.049Z,5.13
2023-05-04T01:50:03.687Z,5.55
2023-05-04T01:52:39.666Z,5.00
2023-05-04T01:55:08.426Z,4.68
2023-05-04T01:57:39.585Z,5.18
2023-05-04T02:00:12.507Z,5.05
2023-05-04T02:02:41.079Z,5.32
2023-05-04T02:05:10.558Z,4.50
2023-05-04T02:07:40.394Z,4.72
2023-05-04T02:10:10.838Z,5.30
2023-05-04T02:12:39.151Z,4.80
2023-05-04T02:15:08.617Z,4.72
2023-05-04T02:17:37.104Z,4.88
2023-05-04T02:20:31.135Z,4.70
2023-05-04T02:23:14.972Z,4.65
2023-05-04T02:25:50.515Z,4.65
2023-05-04T02:28:26.368Z,5.57
2023-05-04T02:31:02.615Z,4.50
2023-05-04T02:33:35.697Z,4.70
2023-05-04T02:36:09.488Z,4.40
2023-05-04T02:38:59.967Z,4.60
2023-05-04T02:41:32.471Z,5.00
2023-05-04T02:44:04.115Z,5.05
2023-05-04T02:46:46.064Z,4.63
2023-05-04T02:49:40.321Z,5.43
2023-05-04T02:52:46.758Z,4.60
2023-05-04T02:55:54.594Z,5.00
2023-05-04T02:58:32.408Z,4.40
2023-05-04T03:01:01.469Z,5.15
2023-05-04T03:03:29.909Z,4.82
2023-05-04T03:05:58.176Z,4.57
2023-05-04T03:08:26.444Z,4.65
2023-05-04T03:10:56.782Z,4.22
2023-05-04T03:13:25.472Z,4.72
2023-05-04T03:16:04.189Z,5.05
2023-05-04T03:18:42.392Z,5.72
2023-05-04T03:21:16.720Z,4.53
2023-05-04T03:23:53.826Z,4.32
2023-05-04T03:26:24.258Z,4.68
2023-05-04T03:28:56.836Z,4.20
2023-05-04T03:31:38.960Z,4.43
2023-05-04T03:34:17.192Z,4.75
2023-05-04T03:36:57.776Z,4.55
2023-05-04T03:39:33.132Z,5.07
2023-05-04T03:42:11.135Z,4.10
2023-05-04T03:44:48.182Z,4.65
2023-05-04T03:47:24.681Z,5.30
2023-05-04T03:49:57.788Z,4.50
2023-05-04T03:52:26.823Z,4.90
2023-05-04T03:55:03.244Z,4.85
2023-05-04T03:57:35.559Z,4.47
2023-05-04T04:00:10.887Z,4.13
2023-05-04T04:02:44.388Z,4.22
2023-05-04T04:08:45.567Z,4.22
2023-05-04T04:11:50.173Z,4.78
2023-05-04T04:14:45.532Z,4.88
2023-05-04T04:17:53.535Z,4.75
2023-05-04T04:20:48.062Z,4.47
2023-05-04T04:23:29.778Z,4.78
2023-05-04T04:28:54.174Z,4.00
2023-05-04T04:31:39.723Z,3.95
2023-05-04T04:34:35.998Z,4.30
2023-05-04T04:37:11.378Z,4.07
2023-05-04T04:39:39.892Z,3.95
2023-05-04T04:42:08.551Z,3.63
2023-05-04T04:44:37.355Z,4.07
2023-05-04T04:47:07.704Z,4.15
2023-05-04T04:49:36.157Z,4.20
2023-05-04T04:52:04.913Z,4.38
2023-05-04T04:54:55.832Z,3.90
2023-05-04T04:57:31.194Z,4.18
2023-05-04T05:00:01.038Z,3.40
2023-05-04T05:03:15.882Z,4.32
2023-05-04T05:06:29.543Z,3.30
2023-05-04T05:09:20.534Z,3.70
2023-05-04T05:12:28.262Z,2.88
2023-05-04T05:15:34.882Z,3.53
2023-05-04T05:18:27.771Z,4.30
2023-05-04T05:21:01.964Z,3.80
2023-05-04T05:23:47.866Z,3.15
2023-05-04T05:27:04.292Z,3.17
2023-05-04T05:30:01.269Z,3.65
2023-05-04T05:32:43.695Z,3.13
2023-05-04T05:35:20.796Z,3.33
2023-05-04T05:38:04.591Z,3.40
2023-05-04T05:41:08.069Z,3.50
2023-05-04T05:44:09.215Z,3.33
2023-05-04T05:47:05.389Z,3.28
2023-05-04T05:49:46.461Z,3.80
2023-05-04T05:52:28.704Z,3.60
2023-05-04T05:55:17.834Z,3.70
2023-05-04T05:58:19.308Z,3.58
2023-05-04T06:01:34.740Z,3.17
2023-05-04T06:04:51.484Z,4.28
2023-05-04T06:07:54.062Z,3.22
2023-05-04T06:10:54.731Z,2.78
2023-05-04T06:13:55.657Z,2.60
2023-05-04T06:16:58.693Z,2.67
2023-05-04T06:19:51.500Z,3.35
2023-05-04T06:26:50.686Z,2.92
2023-05-04T06:29:49.108Z,3.15
2023-05-04T06:32:35.678Z,2.80
2023-05-04T06:35:43.562Z,3.10
2023-05-04T06:39:04.770Z,3.15
2023-05-04T06:42:11.686Z,2.70
2023-05-04T06:45:09.366Z,2.72
2023-05-04T06:47:43.904Z,3.40
2023-05-04T06:50:38.998Z,3.10
2023-05-04T06:53:48.356Z,2.90
2023-05-04T06:56:53.019Z,3.38
2023-05-04T06:59:22.228Z,3.10
2023-05-04T07:01:50.991Z,3.22
2023-05-04T07:04:23.221Z,3.08
2023-05-04T07:06:51.554Z,2.80
2023-05-04T07:09:21.611Z,2.90
2023-05-04T07:11:50.095Z,3.20
2023-05-04T07:14:26.520Z,3.47
2023-05-04T07:17:01.747Z,3.70
2023-05-04T07:19:30.365Z,3.28
2023-05-04T07:22:03.319Z,2.70
2023-05-04T07:24:34.451Z,3.22
2023-05-04T07:27:10.152Z,3.42
2023-05-04T07:29:45.044Z,3.33
2023-05-04T07:32:14.568Z,3.08
2023-05-04T07:34:46.684Z,3.33
2023-05-04T07:37:16.505Z,2.97
2023-05-04T07:39:46.465Z,3.03
2023-05-04T07:42:14.705Z,3.00
2023-05-04T07:44:42.993Z,2.78
2023-05-04T07:47:11.243Z,3.40
2023-05-04T07:49:52.351Z,3.30
2023-05-04T07:52:20.852Z,3.08
2023-05-04T07:54:53.276Z,4.00
2023-05-04T07:57:21.879Z,3.45
2023-05-04T07:59:50.494Z,3.45
2023-05-04T08:02:18.796Z,2.90
2023-05-04T08:04:47.090Z,3.58
2023-05-04T08:07:17.115Z,3.03
2023-05-04T08:09:45.484Z,2.70
2023-05-04T08:12:15.280Z,3.38
2023-05-04T08:14:44.121Z,2.80
2023-05-04T08:17:12.658Z,3.20
2023-05-04T08:19:40.889Z,2.85
2023-05-04T08:22:10.401Z,2.97
2023-05-04T08:24:39.013Z,3.03
2023-05-04T08:27:08.925Z,3.20
2023-05-04T08:29:39.547Z,3.00
2023-05-04T08:32:08.346Z,2.80
2023-05-04T08:34:38.605Z,3.08
2023-05-04T08:37:07.010Z,3.15
2023-05-04T08:39:35.781Z,2.72
2023-05-04T08:42:04.155Z,3.38
2023-05-04T08:44:32.405Z,2.97
2023-05-04T08:47:04.637Z,3.08
2023-05-04T08:49:33.506Z,2.78
2023-05-04T08:52:02.233Z,3.17
2023-05-04T08:54:30.856Z,2.92
2023-05-04T08:56:59.748Z,3.50
2023-05-04T08:59:30.356Z,3.35
2023-05-04T09:02:03.947Z,3.40
2023-05-04T09:04:32.408Z,2.88
2023-05-04T09:07:00.603Z,3.42
2023-05-04T09:09:31.600Z,3.80
2023-05-04T09:12:00.014Z,3.70
2023-05-04T09:14:34.195Z,3.92
2023-05-04T09:17:04.705Z,3.22
2023-05-04T09:19:34.776Z,3.35
2023-05-04T09:22:03.648Z,3.53
2023-05-04T09:24:31.916Z,3.75
2023-05-04T09:27:11.183Z,3.45
2023-05-04T09:29:40.731Z,3.65
2023-05-04T09:32:14.363Z,3.63
2023-05-04T09:34:50.220Z,3.70
2023-05-04T09:37:20.793Z,3.65
2023-05-04T09:39:55.808Z,3.45
2023-05-04T09:42:24.780Z,3.53
2023-05-04T09:45:04.318Z,3.55
2023-05-04T09:47:36.739Z,4.03
2023-05-04T09:50:21.311Z,3.63
2023-05-04T09:52:50.973Z,3.53
2023-05-04T09:55:20.596Z,3.40
2023-05-04T09:57:50.214Z,4.07
2023-05-04T10:00:20.329Z,3.78
2023-05-04T10:02:51.134Z,3.58
2023-05-04T10:05:21.832Z,3.65
2023-05-04T10:07:50.875Z,3.47
2023-05-04T10:10:19.068Z,4.80
2023-05-04T10:12:47.414Z,4.15
2023-05-04T10:15:17.333Z,3.58
2023-05-04T10:18:04.417Z,3.70
2023-05-04T10:20:46.054Z,3.72
2023-05-04T10:23:46.663Z,3.63
2023-05-04T10:26:43.162Z,3.80
2023-05-04T10:29:23.434Z,3.33
2023-05-04T10:31:53.531Z,3.58
2023-05-04T10:34:28.413Z,3.13
2023-05-04T10:36:57.392Z,3.53
2023-05-04T10:39:27.866Z,3.40
2023-05-04T10:42:01.613Z,3.20
2023-05-04T10:44:31.316Z,3.38
2023-05-04T10:47:01.476Z,2.95
2023-05-04T10:49:34.013Z,2.85
2023-05-04T10:52:09.858Z,2.70
2023-05-04T10:54:40.810Z,3.25
2023-05-04T10:57:10.869Z,2.72
2023-05-04T10:59:39.897Z,2.42
2023-05-04T11:02:08.980Z,2.97
2023-05-04T11:04:39.632Z,2.55
2023-05-04T11:07:08.937Z,2.60
2023-05-04T11:09:39.545Z,2.78
2023-05-04T11:12:10.453Z,2.65
2023-05-04T11:14:43.136Z,2.67
2023-05-04T11:19:54.099Z,3.08
2023-05-04T11:22:22.424Z,2.17
2023-05-04T11:24:50.744Z,2.13
2023-05-04T11:27:23.635Z,2.58
2023-05-04T11:29:56.708Z,2.20
2023-05-04T11:32:38.594Z,2.28
2023-05-04T11:35:16.832Z,2.40
2023-05-04T11:37:46.306Z,2.28
2023-05-04T11:40:16.542Z,1.98
2023-05-04T11:42:45.400Z,2.35
2023-05-04T11:45:18.025Z,2.72
2023-05-04T11:47:46.983Z,2.40
2023-05-04T11:50:18.759Z,2.50
2023-05-04T11:52:47.305Z,2.20
2023-05-04T11:55:27.210Z,2.35
2023-05-04T11:57:59.144Z,2.30
2023-05-04T12:00:46.111Z,2.60
2023-05-04T12:03:16.571Z,2.53
2023-05-04T12:05:50.335Z,2.33
2023-05-04T12:08:30.650Z,2.65
2023-05-04T12:11:13.519Z,2.00
2023-05-04T12:13:42.572Z,2.42
2023-05-04T12:16:12.750Z,2.10
2023-05-04T12:18:41.561Z,2.53
2023-05-04T12:21:13.407Z,2.45
2023-05-04T12:23:42.562Z,2.35
2023-05-04T12:26:11.893Z,2.30
2023-05-04T12:28:41.522Z,2.45
2023-05-04T12:31:10.231Z,2.13
2023-05-04T12:33:38.834Z,2.72
2023-05-04T12:36:12.206Z,2.20
2023-05-04T12:38:41.071Z,2.42
2023-05-04T12:41:10.985Z,2.28
2023-05-04T12:43:39.454Z,2.65
2023-05-04T12:46:07.791Z,1.98
2023-05-04T12:48:36.014Z,2.92
2023-05-04T12:51:05.156Z,2.38
2023-05-04T12:53:50.300Z,2.28
2023-05-04T12:59:16.451Z,2.53
2023-05-04T13:02:12.062Z,2.40
2023-05-04T13:04:54.554Z,2.55
2023-05-04T13:07:25.106Z,2.40
2023-05-04T13:09:56.842Z,2.38
2023-05-04T13:12:25.741Z,2.45
2023-05-04T13:14:58.976Z,2.67
2023-05-04T13:17:29.697Z,2.70
2023-05-04T13:20:01.614Z,2.30
2023-05-04T13:22:29.964Z,2.50
2023-05-04T13:24:59.612Z,2.33
2023-05-04T13:27:28.078Z,2.60
2023-05-04T13:29:58.381Z,2.65
2023-05-04T13:32:27.768Z,2.60
2023-05-04T13:34:56.128Z,2.58
2023-05-04T13:37:24.589Z,2.58
2023-05-04T13:39:53.134Z,2.40
2023-05-04T13:42:24.120Z,2.65
2023-05-04T13:44:58.694Z,2.33
2023-05-04T13:47:27.131Z,2.72
2023-05-04T13:49:56.253Z,2.40
2023-05-04T13:52:24.997Z,2.40
2023-05-04T13:54:54.312Z,2.75
2023-05-04T13:57:24.322Z,2.35
2023-05-04T14:00:05.664Z,2.80
2023-05-04T14:02:35.680Z,2.90
2023-05-04T14:05:04.785Z,2.72
2023-05-04T14:07:33.507Z,2.83
2023-05-04T14:10:01.937Z,2.72
2023-05-04T14:12:31.770Z,2.70
2023-05-04T14:15:01.333Z,2.80
2023-05-04T14:17:30.361Z,2.70
2023-05-04T14:19:59.037Z,2.60
2023-05-04T14:22:27.516Z,2.72
2023-05-04T14:24:56.392Z,2.83
2023-05-04T14:27:24.708Z,2.80
2023-05-04T14:29:55.112Z,2.50
2023-05-04T14:32:24.388Z,2.80
2023-05-04T14:34:52.975Z,3.33
2023-05-04T14:37:21.334Z,2.80
2023-05-04T14:39:49.932Z,2.85
2023-05-04T14:42:18.216Z,2.92
2023-05-04T14:45:43.116Z,2.60
2023-05-04T14:48:13.862Z,2.58
2023-05-04T14:50:42.633Z,2.85
2023-05-04T14:53:11.475Z,2.47
2023-05-04T14:55:41.908Z,2.92
2023-05-04T14:58:10.539Z,2.63
2023-05-04T15:00:39.102Z,3.00
2023-05-04T15:03:07.767Z,2.72
2023-05-04T15:05:37.583Z,2.80
2023-05-04T15:08:09.399Z,2.40
2023-05-04T15:10:37.819Z,2.58
2023-05-04T15:13:06.181Z,2.70
2023-05-04T15:15:34.654Z,2.80
2023-05-04T15:18:02.873Z,2.60
2023-05-04T15:20:31.148Z,3.50
2023-05-04T15:23:03.379Z,2.70
2023-05-04T15:25:31.676Z,2.60
2023-05-04T15:28:00.137Z,2.30
2023-05-04T15:30:28.346Z,2.88
2023-05-04T15:32:57.088Z,2.70
2023-05-04T15:35:25.688Z,3.20
2023-05-04T15:37:54.373Z,2.97
2023-05-04T15:40:24.427Z,2.97
2023-05-04T15:42:53.101Z,2.88
2023-05-04T15:45:22.245Z,3.22
2023-05-04T15:47:51.773Z,3.10
2023-05-04T15:50:20.071Z,3.15
2023-05-04T15:52:48.268Z,2.80
2023-05-04T15:55:24.704Z,3.45
2023-05-04T15:57:56.353Z,3.40
2023-05-04T16:00:25.373Z,3.45
2023-05-04T16:02:53.697Z,3.17
2023-05-04T16:05:22.126Z,3.47
2023-05-04T16:07:50.871Z,3.17
2023-05-04T16:10:19.261Z,3.88
2023-05-04T16:12:48.109Z,3.40
2023-05-04T16:15:18.555Z,3.30
2023-05-04T16:17:46.807Z,3.17
2023-05-04T16:20:15.362Z,3.10
2023-05-04T16:22:43.675Z,2.88
2023-05-04T16:25:11.937Z,3.22
2023-05-04T16:27:40.166Z,3.10
2023-05-04T16:30:10.053Z,3.80
2023-05-04T16:32:40.055Z,3.53
2023-05-04T16:35:09.205Z,3.85
2023-05-04T16:37:38.260Z,3.83
2023-05-04T16:40:14.988Z,3.75
2023-05-04T16:42:43.269Z,3.38
2023-05-04T16:45:13.503Z,4.07
2023-05-04T16:47:44.023Z,3.60
2023-05-04T16:50:14.422Z,4.18
2023-05-04T16:52:42.937Z,3.65
2023-05-04T16:55:12.326Z,3.40
2023-05-04T16:57:41.090Z,2.90
2023-05-04T17:00:10.563Z,3.17
2023-05-04T17:02:39.349Z,3.05
2023-05-04T17:05:10.665Z,2.90
2023-05-04T17:07:39.723Z,2.80
2023-05-04T17:10:09.376Z,3.42
2023-05-04T17:12:37.877Z,2.80
2023-05-04T17:15:07.059Z,3.08
2023-05-04T17:17:35.416Z,3.38
2023-05-04T17:20:03.871Z,2.97
2023-05-04T17:22:33.709Z,3.00
2023-05-04T17:25:02.828Z,3.33
2023-05-04T17:27:31.734Z,2.85
2023-05-04T17:30:00.250Z,2.70
2023-05-04T17:32:28.661Z,3.10
2023-05-04T17:35:01.263Z,2.95
2023-05-04T17:37:35.790Z,3.08
2023-05-04T17:40:04.750Z,3.08
2023-05-04T17:42:33.925Z,3.08
2023-05-04T17:45:02.702Z,2.90
2023-05-04T17:47:31.209Z,3.00
2023-05-04T17:49:59.443Z,2.90
2023-05-04T17:52:28.223Z,2.75
2023-05-04T17:54:58.717Z,2.97
2023-05-04T17:57:27.090Z,3.13
2023-05-04T17:59:55.455Z,4.25
2023-05-04T18:02:23.796Z,3.75
2023-05-04T18:04:52.064Z,3.00
2023-05-04T18:07:20.456Z,4.15
2023-05-04T18:09:48.715Z,3.50
2023-05-04T18:12:31.748Z,4.18
2023-05-04T18:15:00.145Z,3.20
2023-05-04T18:17:29.422Z,3.25
2023-05-04T18:19:57.686Z,3.67
2023-05-04T18:22:26.013Z,3.80
2023-05-04T18:24:54.223Z,3.95
2023-05-04T18:27:25.027Z,3.85
2023-05-04T18:29:54.901Z,3.55
2023-05-04T18:32:23.582Z,2.95
2023-05-04T18:34:54.463Z,3.38
2023-05-04T18:37:22.799Z,3.25
2023-05-04T18:39:51.015Z,2.92
2023-05-04T18:42:19.238Z,3.30
2023-05-04T18:44:47.393Z,2.92
2023-05-04T18:47:17.014Z,2.67
2023-05-04T18:49:45.573Z,3.33
2023-05-04T18:52:13.808Z,2.78
2023-05-04T18:54:41.932Z,3.05
2023-05-04T18:57:11.999Z,3.35
2023-05-04T18:59:40.676Z,3.58
2023-05-04T19:02:09.530Z,2.60
2023-05-04T19:04:39.257Z,2.65
2023-05-04T19:07:09.713Z,2.65
2023-05-04T19:09:38.410Z,2.95
2023-05-04T19:12:07.082Z,2.58
2023-05-04T19:14:35.339Z,2.90
2023-05-04T19:17:06.932Z,3.80
2023-05-04T19:19:38.225Z,3.10
2023-05-04T19:22:07.074Z,2.92
2023-05-04T19:24:37.668Z,3.05
2023-05-04T19:27:09.470Z,3.35
2023-05-04T19:29:38.160Z,3.45
2023-05-04T19:32:19.832Z,3.38
2023-05-04T19:34:49.793Z,3.28
2023-05-04T19:37:18.152Z,3.83
2023-05-04T19:39:46.554Z,3.80
2023-05-04T19:42:15.122Z,3.75
2023-05-04T19:44:43.416Z,3.35
2023-05-04T19:47:11.689Z,3.47
2023-05-04T19:49:40.004Z,3.15
2023-05-04T19:52:09.781Z,3.00
2023-05-04T19:54:38.407Z,3.70
2023-05-04T19:57:06.937Z,2.95
2023-05-04T19:59:35.544Z,3.00
2023-05-04T20:02:04.244Z,3.70
2023-05-04T20:04:32.492Z,3.70
2023-05-04T20:07:00.656Z,3.33
2023-05-04T20:09:30.348Z,3.28
2023-05-04T20:11:58.538Z,4.10
2023-05-04T20:14:26.793Z,3.58
2023-05-04T20:16:55.902Z,3.60
2023-05-04T20:19:24.214Z,3.83
2023-05-04T20:21:52.349Z,4.50
2023-05-04T20:24:20.939Z,4.78
2023-05-04T20:26:50.525Z,4.53
2023-05-04T20:29:18.792Z,4.97
2023-05-04T20:31:47.233Z,4.20
2023-05-04T20:34:16.882Z,3.78
2023-05-04T20:36:46.965Z,4.65
2023-05-04T20:39:15.754Z,3.58
2023-05-04T20:41:43.909Z,3.80
2023-05-04T20:44:13.626Z,3.60
2023-05-04T20:46:41.761Z,3.58
2023-05-04T20:49:10.969Z,3.58
2023-05-04T20:51:39.775Z,3.85
2023-05-04T20:54:12.019Z,3.92
2023-05-04T20:56:40.361Z,4.70
2023-05-04T20:59:08.934Z,3.97
2023-05-04T21:01:38.587Z,4.38
2023-05-04T21:04:07.088Z,3.78
2023-05-04T21:06:36.077Z,3.88
2023-05-04T21:09:05.002Z,3.60
2023-05-04T21:11:33.250Z,3.80
2023-05-04T21:14:01.549Z,3.65
2023-05-04T21:16:29.938Z,4.07
2023-05-04T21:19:00.169Z,3.90
2023-05-04T21:21:28.747Z,3.28
2023-05-04T21:23:57.156Z,3.83
2023-05-04T21:26:25.599Z,3.38
2023-05-04T21:28:53.831Z,3.85
2023-05-04T21:31:22.072Z,3.67
2023-05-04T21:33:50.874Z,3.70
2023-05-04T21:36:21.067Z,3.47
2023-05-04T21:38:49.448Z,4.00
2023-05-04T21:41:18.082Z,3.60
2023-05-04T21:43:46.936Z,3.80
2023-05-04T21:46:15.878Z,3.35
2023-05-04T21:48:44.157Z,3.25
2023-05-04T21:51:12.620Z,3.42
2023-05-04T21:53:44.282Z,3.58
2023-05-04T21:56:13.818Z,3.25
2023-05-04T21:58:43.375Z,3.05
2023-05-04T22:01:17.007Z,3.45
2023-05-04T22:03:45.903Z,3.15
2023-05-04T22:06:42.442Z,3.30
2023-05-04T22:09:13.346Z,3.90
2023-05-04T22:11:42.003Z,4.22
2023-05-04T22:14:10.729Z,3.50
2023-05-04T22:16:39.110Z,3.92
2023-05-04T22:19:07.679Z,3.72
2023-05-04T22:21:37.296Z,3.30
2023-05-04T22:24:07.427Z,3.20
2023-05-04T22:26:37.273Z,3.33
2023-05-04T22:29:05.482Z,3.17
2023-05-04T22:31:33.759Z,3.83
2023-05-04T22:34:02.508Z,3.42
2023-05-04T22:36:31.334Z,3.53
2023-05-04T22:38:59.755Z,3.47
2023-05-04T22:41:28.114Z,3.38
2023-05-04T22:43:57.836Z,3.30
2023-05-04T22:46:26.975Z,3.05
2023-05-04T22:48:55.199Z,3.70
2023-05-04T22:51:23.473Z,3.58
2023-05-04T22:53:51.904Z,3.75
2023-05-04T22:56:20.992Z,3.38
2023-05-04T22:58:49.328Z,3.83
2023-05-04T23:01:19.125Z,3.30
2023-05-04T23:03:48.864Z,3.88
2023-05-04T23:06:17.249Z,3.00
2023-05-04T23:08:46.124Z,3.83
2023-05-04T23:11:14.448Z,3.33
2023-05-04T23:13:42.945Z,3.35
2023-05-04T23:16:11.501Z,3.63
2023-05-04T23:18:41.177Z,3.67
2023-05-04T23:21:09.423Z,3.60
2023-05-04T23:23:38.365Z,3.50
2023-05-04T23:26:06.738Z,3.30
2023-05-04T23:28:35.272Z,3.20
2023-05-04T23:31:03.984Z,4.00
2023-05-04T23:33:32.544Z,3.30
2023-05-04T23:36:02.158Z,2.85
2023-05-04T23:38:30.568Z,2.70
2023-05-04T23:41:02.333Z,3.28
2023-05-04T23:43:31.852Z,2.97
2023-05-04T23:46:01.817Z,3.05
2023-05-04T23:48:30.682Z,3.10
2023-05-04T23:51:03.798Z,3.58
2023-05-04T23:53:35.474Z,4.13
2023-05-04T23:56:05.562Z,3.75
2023-05-04T23:58:34.582Z,3.72
